Accueil
METAR-TAF:

METAR-TAF

Aéroports :

Aéroport de Séville

Séville, Espagne

latitude: 37-25N, longitude: 005-54W, altitude: 34 m

Observation

Le bulletin a été fait il y a 38 minutes, à 08:00 UTC
Vent 6 kt de nord-est, variant entre nord et est/nord-est
Température 24°C
Humidité 50%
Pression 1015 hPa
Visibilité 10 km ou plus
pas de nuages en-dessous de 1500 mètres et pas de cumulonimbus.

METAR: LEZL 290800Z AUTO 05006KT 360V070 CAVOK 24/13 Q1015

Heure: 10:38 (08:38 UTC)

Prévision

Le bulletin a été fait il y a 6 heures et 38 minutes, à 02:00 UTC
Prévision valable du 29 à 03 UTC au 30 à 03 UTC
Vent 6 kt de nord-est
Visibilité 10 km ou plus
pas de nuages en-dessous de 1500 mètres et pas de cumulonimbus.
Evoluant progressivement
du 29 à 17 UTC au 29 à 19 UTC
Vent 10 kt de sud-ouest

TAF: LEZL 290200Z 2903/3003 05006KT CAVOK TX37/2915Z TN19/2905Z BECMG 2917/2919 22010KT

Observations et prévisions météorologiques de plus de 4000 aéroports (messages METAR et TAF).

Les stations disponibles sont représentées par des disques jaunes et rouges sur la carte.

Passer la souris dessus pour voir le nom de la station.

Cliquer dessus pour voir les observations et prévisions météorologiques.

Pour changer de carte: cliquez sur les boutons verts avec une croix noire pour zoomer, sur le bouton vert avec un tiret pour effectuer un zoom arrière, ou sur les flèches vertes pour les cartes adjacentes.


METAR-TAF: